createdAt,value
2023-01-29T00:01:59.950Z,89.97
2023-01-29T00:04:27.105Z,89.78
2023-01-29T00:06:53.965Z,89.73
2023-01-29T00:09:21.016Z,89.24
2023-01-29T00:11:47.998Z,89.70
2023-01-29T00:14:14.928Z,88.76
2023-01-29T00:16:42.177Z,88.34
2023-01-29T00:19:09.251Z,89.20
2023-01-29T00:21:36.196Z,88.52
2023-01-29T00:24:03.289Z,89.06
2023-01-29T00:26:30.715Z,88.69
2023-01-29T00:29:02.433Z,88.30
2023-01-29T00:31:30.295Z,88.76
2023-01-29T00:33:57.860Z,88.72
2023-01-29T00:36:26.290Z,88.10
2023-01-29T00:39:02.984Z,88.22
2023-01-29T00:41:50.525Z,88.78
2023-01-29T00:44:36.524Z,88.34
2023-01-29T00:47:04.047Z,87.20
2023-01-29T00:49:38.483Z,87.43
2023-01-29T00:52:24.069Z,87.67
2023-01-29T00:54:51.902Z,87.92
2023-01-29T00:57:18.843Z,87.04
2023-01-29T00:59:45.701Z,87.92
2023-01-29T01:02:31.612Z,87.59
2023-01-29T01:04:58.450Z,87.53
2023-01-29T01:07:25.348Z,88.43
2023-01-29T01:10:10.749Z,87.31
2023-01-29T01:12:37.766Z,88.28
2023-01-29T01:15:05.163Z,88.50
2023-01-29T01:17:32.248Z,87.78
2023-01-29T01:19:59.051Z,88.62
2023-01-29T01:22:26.151Z,88.37
2023-01-29T01:24:52.972Z,87.18
2023-01-29T01:27:19.797Z,86.75
2023-01-29T01:29:47.172Z,87.66
2023-01-29T01:32:14.370Z,87.06
2023-01-29T01:34:41.248Z,87.42
2023-01-29T01:37:08.152Z,87.16
2023-01-29T01:39:35.092Z,86.95
2023-01-29T01:42:02.030Z,85.87
2023-01-29T01:45:08.266Z,87.41
2023-01-29T01:47:54.718Z,86.93
2023-01-29T01:50:40.288Z,87.12
2023-01-29T01:53:13.184Z,87.01
2023-01-29T01:55:56.101Z,87.02
2023-01-29T01:58:36.602Z,87.98
2023-01-29T02:04:13.773Z,87.68
2023-01-29T02:07:00.283Z,87.56
2023-01-29T02:09:36.040Z,87.26
2023-01-29T02:12:05.995Z,87.71
2023-01-29T02:14:34.951Z,87.92
2023-01-29T02:17:02.293Z,87.80
2023-01-29T02:19:58.244Z,87.31
2023-01-29T02:22:28.488Z,87.48
2023-01-29T02:25:16.583Z,86.90
2023-01-29T02:27:59.397Z,86.96
2023-01-29T02:30:40.500Z,87.77
2023-01-29T02:33:23.414Z,86.85
2023-01-29T02:35:54.868Z,87.44
2023-01-29T02:38:36.896Z,87.49
2023-01-29T02:41:32.105Z,88.41
2023-01-29T02:44:08.055Z,87.31
2023-01-29T02:46:43.765Z,87.91
2023-01-29T02:49:58.295Z,87.83
2023-01-29T02:52:51.154Z,87.65
2023-01-29T02:55:44.338Z,87.86
2023-01-29T02:58:18.354Z,87.77
2023-01-29T03:00:48.047Z,88.11
2023-01-29T03:03:18.035Z,88.17
2023-01-29T03:06:09.915Z,87.86
2023-01-29T03:08:45.732Z,87.53
2023-01-29T03:11:15.268Z,87.38
2023-01-29T03:14:00.278Z,87.28
2023-01-29T03:16:35.671Z,88.58
2023-01-29T03:19:09.477Z,89.39
2023-01-29T03:21:59.790Z,88.97
2023-01-29T03:25:01.156Z,88.09
2023-01-29T03:27:51.985Z,89.48
2023-01-29T03:30:39.355Z,89.18
2023-01-29T03:33:09.534Z,88.24
2023-01-29T03:35:43.544Z,89.67
2023-01-29T03:38:12.563Z,88.10
2023-01-29T03:40:53.834Z,87.61
2023-01-29T03:43:44.113Z,88.29
2023-01-29T03:46:36.588Z,87.60
2023-01-29T03:49:29.755Z,86.81
2023-01-29T03:52:18.275Z,87.99
2023-01-29T03:55:07.081Z,86.96
2023-01-29T03:57:41.387Z,88.25
2023-01-29T04:00:19.034Z,87.70
2023-01-29T04:03:15.344Z,86.60
2023-01-29T04:05:53.114Z,86.42
2023-01-29T04:08:36.403Z,86.45
2023-01-29T04:11:12.313Z,85.66
2023-01-29T04:13:40.184Z,86.06
2023-01-29T04:16:11.200Z,87.29
2023-01-29T04:18:38.520Z,86.87
2023-01-29T04:21:07.463Z,86.27
2023-01-29T04:23:34.785Z,86.19
2023-01-29T04:26:27.816Z,87.00
2023-01-29T04:29:06.369Z,86.26
2023-01-29T04:31:37.871Z,86.74
2023-01-29T04:34:26.804Z,86.74
2023-01-29T04:37:10.448Z,87.26
2023-01-29T04:39:59.286Z,86.40
2023-01-29T04:42:41.982Z,86.57
2023-01-29T04:45:34.225Z,86.16
2023-01-29T04:48:16.106Z,86.45
2023-01-29T04:51:19.417Z,86.98
2023-01-29T04:54:12.424Z,86.28
2023-01-29T04:56:44.804Z,86.65
2023-01-29T04:59:23.865Z,87.35
2023-01-29T05:01:50.985Z,87.33
2023-01-29T05:04:21.039Z,86.78
2023-01-29T05:06:51.457Z,86.38
2023-01-29T05:09:20.107Z,85.40
2023-01-29T05:11:49.035Z,86.37
2023-01-29T05:14:19.324Z,86.28
2023-01-29T05:16:51.836Z,87.63
2023-01-29T05:19:18.832Z,87.65
2023-01-29T05:21:48.944Z,86.90
2023-01-29T05:24:19.694Z,86.08
2023-01-29T05:27:07.763Z,87.21
2023-01-29T05:29:35.021Z,87.41
2023-01-29T05:32:02.136Z,86.91
2023-01-29T05:34:29.018Z,87.26
2023-01-29T05:36:56.173Z,86.77
2023-01-29T05:39:23.099Z,86.20
2023-01-29T05:41:50.066Z,86.35
2023-01-29T05:44:17.329Z,86.99
2023-01-29T05:46:44.827Z,86.60
2023-01-29T05:49:12.096Z,86.09
2023-01-29T05:51:39.026Z,86.25
2023-01-29T05:54:05.895Z,86.05
2023-01-29T05:56:32.814Z,87.25
2023-01-29T05:58:59.835Z,86.91
2023-01-29T06:01:26.978Z,86.71
2023-01-29T06:03:53.856Z,87.06
2023-01-29T06:06:20.797Z,87.00
2023-01-29T06:08:48.097Z,86.97
2023-01-29T06:11:18.455Z,86.64
2023-01-29T06:13:46.021Z,87.52
2023-01-29T06:16:14.389Z,85.88
2023-01-29T06:18:42.542Z,87.04
2023-01-29T06:21:13.720Z,85.88
2023-01-29T06:23:41.317Z,85.90
2023-01-29T06:26:12.124Z,86.84
2023-01-29T06:28:39.274Z,85.91
2023-01-29T06:31:26.592Z,85.78
2023-01-29T06:33:54.318Z,86.64
2023-01-29T06:36:21.286Z,85.72
2023-01-29T06:38:48.282Z,86.32
2023-01-29T06:41:18.274Z,85.75
2023-01-29T06:43:46.060Z,86.43
2023-01-29T06:46:12.969Z,85.49
2023-01-29T06:48:40.058Z,86.08
2023-01-29T06:51:08.896Z,85.73
2023-01-29T06:53:37.443Z,85.15
2023-01-29T06:56:05.668Z,85.58
2023-01-29T06:58:32.606Z,84.71
2023-01-29T07:01:06.612Z,85.19
2023-01-29T07:03:33.675Z,85.25
2023-01-29T07:06:03.426Z,85.96
2023-01-29T07:08:30.518Z,85.81
2023-01-29T07:11:01.524Z,86.41
2023-01-29T07:13:30.807Z,86.13
2023-01-29T07:16:07.483Z,86.38
2023-01-29T07:18:34.549Z,86.79
2023-01-29T07:21:06.582Z,86.24
2023-01-29T07:23:35.005Z,86.88
2023-01-29T07:26:06.338Z,86.44
2023-01-29T07:28:37.747Z,86.36
2023-01-29T07:31:06.088Z,86.00
2023-01-29T07:33:33.841Z,86.39
2023-01-29T07:36:02.438Z,85.60
2023-01-29T07:38:29.337Z,85.11
2023-01-29T07:40:56.256Z,84.81
2023-01-29T07:43:25.515Z,85.32
2023-01-29T07:45:52.562Z,86.11
2023-01-29T07:48:19.739Z,86.34
2023-01-29T07:50:55.432Z,86.13
2023-01-29T07:53:22.702Z,87.04
2023-01-29T07:55:49.539Z,86.12
2023-01-29T07:58:16.374Z,86.82
2023-01-29T08:00:44.244Z,87.05
2023-01-29T08:03:16.926Z,86.73
2023-01-29T08:05:45.534Z,86.87
2023-01-29T08:08:13.508Z,87.38
2023-01-29T08:10:41.047Z,85.97
2023-01-29T08:13:08.542Z,86.51
2023-01-29T08:15:39.226Z,86.78
2023-01-29T08:18:08.428Z,86.30
2023-01-29T08:20:35.230Z,85.37
2023-01-29T08:23:07.631Z,84.21
2023-01-29T08:25:35.972Z,84.94
2023-01-29T08:28:02.913Z,84.15
2023-01-29T08:30:31.867Z,85.04
2023-01-29T08:32:59.287Z,84.44
2023-01-29T08:35:26.795Z,86.10
2023-01-29T08:38:01.650Z,85.06
2023-01-29T08:40:32.306Z,86.66
2023-01-29T08:43:02.198Z,85.20
2023-01-29T08:45:30.974Z,85.65
2023-01-29T08:47:57.983Z,84.62
2023-01-29T08:50:24.935Z,84.04
2023-01-29T08:52:51.926Z,84.34
2023-01-29T08:55:19.133Z,83.56
2023-01-29T08:57:46.421Z,83.62
2023-01-29T09:00:14.794Z,84.63
2023-01-29T09:02:42.339Z,83.79
2023-01-29T09:05:10.058Z,84.24
2023-01-29T09:07:37.375Z,84.94
2023-01-29T09:10:23.098Z,83.85
2023-01-29T09:12:50.092Z,84.65
2023-01-29T09:15:17.543Z,85.57
2023-01-29T09:17:44.606Z,86.15
2023-01-29T09:20:12.322Z,84.86
2023-01-29T09:22:39.208Z,85.26
2023-01-29T09:25:06.787Z,85.45
2023-01-29T09:27:34.169Z,84.43
2023-01-29T09:30:01.018Z,85.15
2023-01-29T09:32:52.665Z,85.07
2023-01-29T09:35:17.895Z,85.24
2023-01-29T09:37:48.375Z,85.90
2023-01-29T09:40:35.495Z,84.46
2023-01-29T09:43:15.796Z,86.51
2023-01-29T09:46:06.558Z,93.78
2023-01-29T09:48:36.645Z,84.99
2023-01-29T09:51:14.025Z,85.78
2023-01-29T09:53:47.741Z,85.47
2023-01-29T09:56:20.306Z,84.51
2023-01-29T09:58:47.722Z,86.30
2023-01-29T10:01:37.976Z,85.60
2023-01-29T10:04:21.451Z,85.64
2023-01-29T10:06:48.487Z,86.78
2023-01-29T10:09:39.432Z,86.49
2023-01-29T10:12:37.331Z,86.31
2023-01-29T10:15:28.789Z,85.96
2023-01-29T10:18:03.779Z,86.31
2023-01-29T10:20:49.053Z,87.35
2023-01-29T10:23:25.279Z,87.51
2023-01-29T10:25:53.748Z,88.92
2023-01-29T10:28:46.391Z,88.02
2023-01-29T10:31:39.131Z,88.92
2023-01-29T10:34:34.739Z,88.61
2023-01-29T10:37:07.105Z,88.19
2023-01-29T10:39:34.526Z,89.34
2023-01-29T10:42:41.197Z,89.67
2023-01-29T10:45:33.859Z,89.30
2023-01-29T10:48:06.976Z,89.72
2023-01-29T10:50:50.930Z,100.00
2023-01-29T10:53:30.007Z,89.25
2023-01-29T10:56:29.434Z,89.51
2023-01-29T10:59:06.011Z,89.02
2023-01-29T11:01:32.813Z,88.37
2023-01-29T11:04:04.698Z,89.00
2023-01-29T11:06:37.094Z,88.47
2023-01-29T11:09:13.968Z,89.34
2023-01-29T11:11:52.211Z,89.91
2023-01-29T11:14:27.220Z,89.15
2023-01-29T11:16:54.385Z,87.45
2023-01-29T11:19:41.585Z,88.86
2023-01-29T11:22:16.815Z,89.08
2023-01-29T11:24:44.187Z,89.88
2023-01-29T11:27:30.049Z,88.74
2023-01-29T11:29:57.476Z,88.57
2023-01-29T11:32:24.532Z,88.81
2023-01-29T11:35:16.776Z,87.92
2023-01-29T11:37:46.624Z,86.69
2023-01-29T11:40:19.375Z,87.99
2023-01-29T11:42:50.130Z,87.75
2023-01-29T11:45:23.223Z,88.54
2023-01-29T11:47:53.324Z,88.88
2023-01-29T11:50:24.628Z,88.66
2023-01-29T11:52:52.030Z,87.45
2023-01-29T11:55:49.909Z,88.53
2023-01-29T12:00:55.755Z,87.34
2023-01-29T12:03:43.976Z,86.90
2023-01-29T12:06:31.808Z,86.84
2023-01-29T12:09:01.935Z,87.40
2023-01-29T12:11:30.028Z,87.64
2023-01-29T12:14:05.173Z,88.09
2023-01-29T12:17:03.765Z,87.62
2023-01-29T12:19:50.997Z,87.38
2023-01-29T12:22:22.559Z,87.29
2023-01-29T12:24:55.472Z,86.65
2023-01-29T12:27:32.771Z,86.88
2023-01-29T12:30:12.027Z,86.74
2023-01-29T12:32:55.819Z,86.64
2023-01-29T12:35:31.815Z,85.83
2023-01-29T12:38:10.577Z,86.42
2023-01-29T12:40:44.701Z,86.26
2023-01-29T12:43:28.947Z,86.07
2023-01-29T12:45:58.574Z,86.25
2023-01-29T12:48:34.111Z,86.40
2023-01-29T12:51:24.758Z,86.79
2023-01-29T12:54:00.043Z,86.81
2023-01-29T12:56:37.162Z,87.76
2023-01-29T12:59:21.766Z,86.20
2023-01-29T13:01:54.937Z,85.76
2023-01-29T13:04:42.803Z,86.27
2023-01-29T13:07:15.163Z,86.41
2023-01-29T13:09:45.933Z,86.93
2023-01-29T13:12:18.939Z,87.06
2023-01-29T13:14:57.728Z,87.13
2023-01-29T13:17:33.285Z,87.47
2023-01-29T13:20:17.063Z,86.88
2023-01-29T13:22:46.001Z,87.50
2023-01-29T13:25:19.338Z,86.83
2023-01-29T13:27:48.385Z,86.92
2023-01-29T13:30:44.917Z,86.38
2023-01-29T13:33:24.193Z,87.03
2023-01-29T13:36:18.409Z,85.20
2023-01-29T13:38:45.423Z,86.63
2023-01-29T13:41:13.552Z,86.75
2023-01-29T13:46:25.296Z,86.63
2023-01-29T13:48:55.823Z,86.58
2023-01-29T13:51:28.080Z,86.50
2023-01-29T13:54:04.117Z,86.61
2023-01-29T13:56:33.729Z,86.26
2023-01-29T13:59:03.495Z,86.75
2023-01-29T14:01:48.928Z,87.55
2023-01-29T14:04:32.566Z,87.49
2023-01-29T14:07:00.667Z,87.02
2023-01-29T14:09:42.854Z,87.03
2023-01-29T14:12:21.994Z,87.17
2023-01-29T14:14:49.272Z,97.95
2023-01-29T14:17:19.057Z,87.64
2023-01-29T14:19:55.653Z,85.75
2023-01-29T14:22:32.647Z,85.29
2023-01-29T14:25:03.641Z,85.36
2023-01-29T14:27:31.561Z,85.90
2023-01-29T14:30:01.786Z,85.60
2023-01-29T14:32:29.696Z,85.02
2023-01-29T14:35:03.390Z,84.99
2023-01-29T14:37:34.612Z,85.69
2023-01-29T14:43:02.914Z,84.92
2023-01-29T14:48:11.128Z,85.13
2023-01-29T15:05:49.754Z,85.78
2023-01-29T15:08:40.845Z,85.23
2023-01-29T15:11:32.895Z,85.75
2023-01-29T15:14:36.610Z,85.00
2023-01-29T15:50:46.062Z,86.47
2023-01-29T16:04:11.693Z,84.64
2023-01-29T16:06:41.101Z,84.67
2023-01-29T16:09:09.008Z,84.58
2023-01-29T16:11:36.408Z,83.26
2023-01-29T16:14:04.097Z,84.05
2023-01-29T16:16:31.213Z,84.42
2023-01-29T16:19:00.844Z,84.88
2023-01-29T16:21:36.525Z,83.85
2023-01-29T16:24:14.109Z,84.79
2023-01-29T16:26:47.613Z,84.16
2023-01-29T16:29:30.388Z,83.40
2023-01-29T16:32:02.221Z,83.01
2023-01-29T16:34:41.427Z,83.64
2023-01-29T16:37:26.500Z,83.70
2023-01-29T16:39:53.463Z,83.98
2023-01-29T16:42:23.359Z,83.56
2023-01-29T16:45:28.143Z,85.70
2023-01-29T16:51:11.070Z,83.99
2023-01-29T16:53:38.280Z,83.58
2023-01-29T16:56:08.289Z,83.78
2023-01-29T16:58:36.752Z,82.79
2023-01-29T17:01:09.228Z,82.87
2023-01-29T17:03:37.562Z,84.06
2023-01-29T17:06:14.916Z,84.17
2023-01-29T17:08:49.513Z,83.36
2023-01-29T17:11:28.904Z,84.47
2023-01-29T17:13:57.346Z,83.12
2023-01-29T17:16:31.647Z,82.92
2023-01-29T17:18:59.677Z,83.30
2023-01-29T17:21:26.964Z,82.39
2023-01-29T17:23:54.060Z,84.11
2023-01-29T17:26:21.507Z,83.56
2023-01-29T17:28:51.524Z,82.82
2023-01-29T17:31:18.459Z,83.86
2023-01-29T17:33:46.064Z,84.50
2023-01-29T17:36:15.837Z,83.88
2023-01-29T17:38:43.116Z,83.36
2023-01-29T17:41:23.050Z,84.39
2023-01-29T17:43:50.047Z,83.22
2023-01-29T17:46:23.119Z,82.10
2023-01-29T17:48:50.370Z,83.02
2023-01-29T17:51:18.460Z,82.48
2023-01-29T17:53:47.005Z,82.37
2023-01-29T17:56:17.130Z,83.45
2023-01-29T17:58:44.515Z,83.24
2023-01-29T18:01:11.412Z,82.69
2023-01-29T18:03:38.423Z,82.40
2023-01-29T18:06:08.804Z,83.11
2023-01-29T18:08:38.258Z,82.66
2023-01-29T18:11:05.738Z,83.50
2023-01-29T18:13:35.540Z,83.63
2023-01-29T18:16:02.598Z,82.98
2023-01-29T18:18:29.704Z,84.15
2023-01-29T18:20:56.478Z,83.82
2023-01-29T18:23:23.330Z,83.81
2023-01-29T18:25:50.253Z,84.73
2023-01-29T18:28:17.816Z,84.45
2023-01-29T18:30:48.038Z,85.21
2023-01-29T18:33:16.523Z,83.98
2023-01-29T18:35:50.069Z,84.26
2023-01-29T18:38:17.560Z,84.06
2023-01-29T18:40:44.498Z,84.15
2023-01-29T18:43:11.374Z,84.55
2023-01-29T18:45:41.180Z,85.27
2023-01-29T18:48:08.237Z,85.75
2023-01-29T18:50:36.359Z,83.56
2023-01-29T18:53:08.945Z,84.83
2023-01-29T18:55:36.241Z,85.34
2023-01-29T18:58:28.983Z,84.85
2023-01-29T19:00:52.436Z,84.77
2023-01-29T19:03:23.089Z,84.45
2023-01-29T19:05:52.098Z,85.49
2023-01-29T19:08:19.164Z,85.98
2023-01-29T19:10:46.233Z,86.28
2023-01-29T19:13:13.473Z,84.90
2023-01-29T19:15:43.278Z,85.15
2023-01-29T19:18:12.557Z,85.28
2023-01-29T19:20:45.232Z,83.86
2023-01-29T19:23:14.062Z,84.26
2023-01-29T19:25:41.044Z,83.93
2023-01-29T19:28:08.311Z,83.60
2023-01-29T19:30:36.592Z,84.43
2023-01-29T19:33:04.830Z,83.94
2023-01-29T19:35:33.154Z,83.59
2023-01-29T19:38:01.438Z,84.40
2023-01-29T19:40:28.500Z,85.40
2023-01-29T19:42:56.484Z,85.51
2023-01-29T19:45:49.441Z,84.20
2023-01-29T19:48:17.023Z,84.52
2023-01-29T19:50:43.922Z,84.19
2023-01-29T19:53:10.831Z,84.22
2023-01-29T19:55:37.960Z,84.22
2023-01-29T19:58:05.087Z,83.68
2023-01-29T20:00:32.192Z,82.78
2023-01-29T20:02:59.004Z,83.29
2023-01-29T20:05:27.465Z,82.91
2023-01-29T20:07:54.314Z,83.67
2023-01-29T20:10:21.542Z,83.01
2023-01-29T20:12:48.557Z,84.03
2023-01-29T20:15:15.611Z,83.63
2023-01-29T20:17:42.606Z,81.86
2023-01-29T20:20:10.279Z,83.36
2023-01-29T20:22:38.069Z,82.98
2023-01-29T20:25:05.340Z,83.26
2023-01-29T20:27:32.172Z,83.59
2023-01-29T20:29:59.839Z,83.68
2023-01-29T20:32:26.856Z,84.09
2023-01-29T20:34:53.712Z,85.24
2023-01-29T20:37:20.878Z,86.35
2023-01-29T20:39:47.956Z,87.47
2023-01-29T20:42:15.340Z,86.50
2023-01-29T20:44:42.242Z,87.61
2023-01-29T20:47:09.408Z,87.54
2023-01-29T20:49:36.358Z,87.62
2023-01-29T20:52:03.272Z,87.89
2023-01-29T20:54:33.304Z,88.62
2023-01-29T20:57:00.537Z,88.49
2023-01-29T20:59:29.510Z,89.03
2023-01-29T21:01:56.585Z,88.69
2023-01-29T21:04:23.685Z,88.38
2023-01-29T21:06:52.476Z,87.54
2023-01-29T21:09:20.836Z,87.92
2023-01-29T21:11:48.017Z,87.21
2023-01-29T21:14:17.330Z,87.06
2023-01-29T21:16:44.403Z,86.61
2023-01-29T21:19:14.529Z,86.72
2023-01-29T21:21:41.807Z,86.54
2023-01-29T21:24:10.596Z,86.68
2023-01-29T21:26:38.687Z,85.98
2023-01-29T21:29:05.581Z,86.05
2023-01-29T21:31:33.716Z,86.11
2023-01-29T21:34:00.527Z,85.61
2023-01-29T21:36:27.444Z,85.37
2023-01-29T21:38:54.304Z,85.82
2023-01-29T21:41:41.134Z,85.98
2023-01-29T21:44:08.222Z,85.24
2023-01-29T21:46:35.367Z,86.09
2023-01-29T21:49:06.607Z,85.64
2023-01-29T21:51:34.573Z,85.73
2023-01-29T21:54:03.583Z,85.44
2023-01-29T21:56:30.785Z,86.47
2023-01-29T21:59:01.031Z,86.23
2023-01-29T22:01:37.471Z,85.96
2023-01-29T22:04:07.850Z,87.14
2023-01-29T22:06:34.842Z,86.73
2023-01-29T22:09:01.736Z,86.17
2023-01-29T22:11:28.995Z,86.32
2023-01-29T22:13:56.154Z,86.72
2023-01-29T22:16:23.104Z,86.40
2023-01-29T22:18:50.464Z,86.89
2023-01-29T22:21:17.416Z,86.57
2023-01-29T22:23:48.661Z,86.70
2023-01-29T22:26:16.221Z,86.63
2023-01-29T22:28:43.247Z,86.70
2023-01-29T22:31:10.589Z,87.19
2023-01-29T22:33:37.810Z,86.57
2023-01-29T22:36:05.014Z,87.27
2023-01-29T22:38:32.103Z,86.90
2023-01-29T22:41:00.694Z,86.65
2023-01-29T22:43:27.714Z,86.04
2023-01-29T22:45:55.236Z,86.79
2023-01-29T22:48:23.434Z,85.31
2023-01-29T22:51:09.814Z,86.05
2023-01-29T22:53:48.633Z,85.76
2023-01-29T22:56:16.466Z,86.05
2023-01-29T22:58:43.325Z,85.59
2023-01-29T23:01:10.909Z,86.11
2023-01-29T23:03:37.828Z,86.15
2023-01-29T23:06:04.800Z,85.38
2023-01-29T23:08:34.231Z,85.40
2023-01-29T23:11:15.119Z,86.33
2023-01-29T23:13:46.651Z,85.56
2023-01-29T23:16:14.854Z,85.18
2023-01-29T23:18:42.149Z,85.12
2023-01-29T23:21:09.820Z,85.66
2023-01-29T23:23:37.996Z,85.96
2023-01-29T23:26:25.443Z,85.78
2023-01-29T23:28:52.726Z,85.79
2023-01-29T23:31:19.633Z,85.16
2023-01-29T23:33:46.664Z,85.77
2023-01-29T23:36:13.558Z,86.15
2023-01-29T23:38:40.411Z,86.48
2023-01-29T23:41:07.566Z,86.70
2023-01-29T23:43:35.001Z,86.91
2023-01-29T23:46:04.271Z,86.24
2023-01-29T23:48:31.191Z,85.93
2023-01-29T23:50:58.182Z,85.68
2023-01-29T23:53:25.076Z,86.08
2023-01-29T23:56:03.944Z,85.94
2023-01-29T23:58:31.807Z,85.76
